sensor_id;sensor_type;location;lat;lon;timestamp;P1;durP1;ratioP1;P2;durP2;ratioP2
43857;SDS011;29507;51.284;5.758;2023-08-24T00:00:16;10.98;;;6.57;;
43857;SDS011;29507;51.284;5.758;2023-08-24T00:02:43;12.65;;;6.10;;
43857;SDS011;29507;51.284;5.758;2023-08-24T00:05:08;10.25;;;5.60;;
43857;SDS011;29507;51.284;5.758;2023-08-24T00:07:34;10.77;;;5.03;;
43857;SDS011;29507;51.284;5.758;2023-08-24T00:10:00;12.80;;;5.90;;
43857;SDS011;29507;51.284;5.758;2023-08-24T00:12:25;11.07;;;5.68;;
43857;SDS011;29507;51.284;5.758;2023-08-24T00:14:51;9.73;;;6.00;;
43857;SDS011;29507;51.284;5.758;2023-08-24T00:17:17;9.20;;;4.82;;
43857;SDS011;29507;51.284;5.758;2023-08-24T00:19:43;10.85;;;5.25;;
43857;SDS011;29507;51.284;5.758;2023-08-24T00:22:08;10.10;;;5.32;;
43857;SDS011;29507;51.284;5.758;2023-08-24T00:24:34;9.07;;;4.60;;
43857;SDS011;29507;51.284;5.758;2023-08-24T00:26:59;8.55;;;4.97;;
43857;SDS011;29507;51.284;5.758;2023-08-24T00:29:25;10.93;;;4.82;;
43857;SDS011;29507;51.284;5.758;2023-08-24T00:31:51;12.68;;;5.75;;
43857;SDS011;29507;51.284;5.758;2023-08-24T00:34:16;7.95;;;4.80;;
43857;SDS011;29507;51.284;5.758;2023-08-24T00:36:43;9.57;;;4.88;;
43857;SDS011;29507;51.284;5.758;2023-08-24T00:39:09;9.57;;;4.82;;
43857;SDS011;29507;51.284;5.758;2023-08-24T00:41:35;12.48;;;4.93;;
43857;SDS011;29507;51.284;5.758;2023-08-24T00:44:00;7.82;;;5.15;;
43857;SDS011;29507;51.284;5.758;2023-08-24T00:46:27;12.13;;;4.78;;
43857;SDS011;29507;51.284;5.758;2023-08-24T00:48:53;11.68;;;5.15;;
43857;SDS011;29507;51.284;5.758;2023-08-24T00:51:23;13.95;;;5.63;;
43857;SDS011;29507;51.284;5.758;2023-08-24T00:53:49;12.30;;;5.20;;
43857;SDS011;29507;51.284;5.758;2023-08-24T00:56:15;13.20;;;5.40;;
43857;SDS011;29507;51.284;5.758;2023-08-24T00:58:41;16.88;;;5.63;;
43857;SDS011;29507;51.284;5.758;2023-08-24T01:01:09;11.40;;;5.32;;
43857;SDS011;29507;51.284;5.758;2023-08-24T01:03:35;13.13;;;5.00;;
43857;SDS011;29507;51.284;5.758;2023-08-24T01:06:01;11.43;;;5.20;;
43857;SDS011;29507;51.284;5.758;2023-08-24T01:08:26;9.20;;;4.72;;
43857;SDS011;29507;51.284;5.758;2023-08-24T01:16:39;11.43;;;4.95;;
43857;SDS011;29507;51.284;5.758;2023-08-24T01:19:18;7.68;;;4.90;;
43857;SDS011;29507;51.284;5.758;2023-08-24T01:22:20;8.83;;;4.83;;
43857;SDS011;29507;51.284;5.758;2023-08-24T01:27:40;7.95;;;4.90;;
43857;SDS011;29507;51.284;5.758;2023-08-24T01:30:07;9.30;;;5.40;;
43857;SDS011;29507;51.284;5.758;2023-08-24T01:32:34;10.90;;;5.65;;
43857;SDS011;29507;51.284;5.758;2023-08-24T01:35:01;8.10;;;4.88;;
43857;SDS011;29507;51.284;5.758;2023-08-24T01:37:29;7.10;;;4.77;;
43857;SDS011;29507;51.284;5.758;2023-08-24T01:40:04;11.30;;;5.28;;
43857;SDS011;29507;51.284;5.758;2023-08-24T01:42:35;11.27;;;5.30;;
43857;SDS011;29507;51.284;5.758;2023-08-24T01:45:08;6.75;;;4.88;;
43857;SDS011;29507;51.284;5.758;2023-08-24T01:47:35;6.90;;;3.92;;
43857;SDS011;29507;51.284;5.758;2023-08-24T01:50:02;6.80;;;4.13;;
43857;SDS011;29507;51.284;5.758;2023-08-24T01:52:28;10.90;;;4.78;;
43857;SDS011;29507;51.284;5.758;2023-08-24T01:54:55;13.65;;;5.07;;
43857;SDS011;29507;51.284;5.758;2023-08-24T01:57:20;11.07;;;5.28;;
43857;SDS011;29507;51.284;5.758;2023-08-24T01:59:46;12.63;;;5.40;;
43857;SDS011;29507;51.284;5.758;2023-08-24T02:02:12;8.90;;;5.15;;
43857;SDS011;29507;51.284;5.758;2023-08-24T02:04:37;9.93;;;5.00;;
43857;SDS011;29507;51.284;5.758;2023-08-24T02:07:03;10.73;;;5.40;;
43857;SDS011;29507;51.284;5.758;2023-08-24T02:09:28;14.25;;;5.60;;
43857;SDS011;29507;51.284;5.758;2023-08-24T02:11:55;9.20;;;5.13;;
43857;SDS011;29507;51.284;5.758;2023-08-24T02:14:20;10.63;;;5.65;;
43857;SDS011;29507;51.284;5.758;2023-08-24T02:16:46;10.73;;;4.88;;
43857;SDS011;29507;51.284;5.758;2023-08-24T02:19:12;9.18;;;5.30;;
43857;SDS011;29507;51.284;5.758;2023-08-24T02:21:37;9.77;;;5.57;;
43857;SDS011;29507;51.284;5.758;2023-08-24T02:24:04;10.25;;;5.03;;
43857;SDS011;29507;51.284;5.758;2023-08-24T02:26:30;10.95;;;6.63;;
43857;SDS011;29507;51.284;5.758;2023-08-24T02:28:56;15.25;;;6.07;;
43857;SDS011;29507;51.284;5.758;2023-08-24T02:31:22;9.10;;;5.20;;
43857;SDS011;29507;51.284;5.758;2023-08-24T02:33:48;11.15;;;5.25;;
43857;SDS011;29507;51.284;5.758;2023-08-24T02:36:14;8.18;;;5.10;;
43857;SDS011;29507;51.284;5.758;2023-08-24T02:38:40;10.75;;;5.55;;
43857;SDS011;29507;51.284;5.758;2023-08-24T02:41:06;12.07;;;6.43;;
43857;SDS011;29507;51.284;5.758;2023-08-24T02:43:35;10.45;;;5.93;;
43857;SDS011;29507;51.284;5.758;2023-08-24T02:46:04;13.23;;;6.30;;
43857;SDS011;29507;51.284;5.758;2023-08-24T02:48:32;13.75;;;6.47;;
43857;SDS011;29507;51.284;5.758;2023-08-24T02:50:58;11.88;;;6.18;;
43857;SDS011;29507;51.284;5.758;2023-08-24T02:53:25;12.80;;;5.85;;
43857;SDS011;29507;51.284;5.758;2023-08-24T02:55:51;9.00;;;5.60;;
43857;SDS011;29507;51.284;5.758;2023-08-24T02:58:17;9.32;;;6.10;;
43857;SDS011;29507;51.284;5.758;2023-08-24T03:00:42;11.20;;;6.55;;
43857;SDS011;29507;51.284;5.758;2023-08-24T03:03:08;10.02;;;6.10;;
43857;SDS011;29507;51.284;5.758;2023-08-24T03:05:34;14.50;;;7.13;;
43857;SDS011;29507;51.284;5.758;2023-08-24T03:08:00;11.02;;;7.18;;
43857;SDS011;29507;51.284;5.758;2023-08-24T03:10:26;13.65;;;6.15;;
43857;SDS011;29507;51.284;5.758;2023-08-24T03:12:52;11.95;;;6.60;;
43857;SDS011;29507;51.284;5.758;2023-08-24T03:15:17;13.23;;;6.72;;
43857;SDS011;29507;51.284;5.758;2023-08-24T03:17:43;14.93;;;6.70;;
43857;SDS011;29507;51.284;5.758;2023-08-24T03:20:09;16.48;;;6.97;;
43857;SDS011;29507;51.284;5.758;2023-08-24T03:22:36;12.18;;;7.05;;
43857;SDS011;29507;51.284;5.758;2023-08-24T03:25:01;14.43;;;7.13;;
43857;SDS011;29507;51.284;5.758;2023-08-24T03:27:27;13.70;;;7.35;;
43857;SDS011;29507;51.284;5.758;2023-08-24T03:29:53;10.95;;;6.53;;
43857;SDS011;29507;51.284;5.758;2023-08-24T03:32:19;14.75;;;7.55;;
43857;SDS011;29507;51.284;5.758;2023-08-24T03:34:44;14.48;;;7.72;;
43857;SDS011;29507;51.284;5.758;2023-08-24T03:37:10;12.57;;;7.53;;
43857;SDS011;29507;51.284;5.758;2023-08-24T03:39:38;14.25;;;6.97;;
43857;SDS011;29507;51.284;5.758;2023-08-24T03:42:06;14.70;;;7.95;;
43857;SDS011;29507;51.284;5.758;2023-08-24T03:44:32;16.02;;;8.43;;
43857;SDS011;29507;51.284;5.758;2023-08-24T03:46:59;19.02;;;8.65;;
43857;SDS011;29507;51.284;5.758;2023-08-24T03:49:25;15.55;;;8.60;;
43857;SDS011;29507;51.284;5.758;2023-08-24T03:51:51;18.00;;;8.85;;
43857;SDS011;29507;51.284;5.758;2023-08-24T03:54:16;14.18;;;8.77;;
43857;SDS011;29507;51.284;5.758;2023-08-24T03:56:42;16.50;;;8.48;;
43857;SDS011;29507;51.284;5.758;2023-08-24T03:59:08;17.33;;;9.85;;
43857;SDS011;29507;51.284;5.758;2023-08-24T04:01:33;19.85;;;9.82;;
43857;SDS011;29507;51.284;5.758;2023-08-24T04:03:59;15.77;;;9.60;;
43857;SDS011;29507;51.284;5.758;2023-08-24T04:06:24;17.63;;;10.07;;
43857;SDS011;29507;51.284;5.758;2023-08-24T04:08:50;16.40;;;8.73;;
43857;SDS011;29507;51.284;5.758;2023-08-24T04:11:16;20.08;;;9.88;;
43857;SDS011;29507;51.284;5.758;2023-08-24T04:13:42;16.88;;;9.48;;
43857;SDS011;29507;51.284;5.758;2023-08-24T04:16:07;17.30;;;8.60;;
43857;SDS011;29507;51.284;5.758;2023-08-24T04:18:33;17.75;;;8.73;;
43857;SDS011;29507;51.284;5.758;2023-08-24T04:20:59;21.98;;;10.50;;
43857;SDS011;29507;51.284;5.758;2023-08-24T04:23:25;16.02;;;9.48;;
43857;SDS011;29507;51.284;5.758;2023-08-24T04:25:51;15.27;;;9.02;;
43857;SDS011;29507;51.284;5.758;2023-08-24T04:28:18;18.05;;;8.82;;
43857;SDS011;29507;51.284;5.758;2023-08-24T04:30:54;15.32;;;9.85;;
43857;SDS011;29507;51.284;5.758;2023-08-24T04:33:22;19.63;;;9.60;;
43857;SDS011;29507;51.284;5.758;2023-08-24T04:35:50;17.70;;;9.52;;
43857;SDS011;29507;51.284;5.758;2023-08-24T04:38:16;13.00;;;8.57;;
43857;SDS011;29507;51.284;5.758;2023-08-24T04:43:17;14.70;;;7.97;;
43857;SDS011;29507;51.284;5.758;2023-08-24T04:45:48;16.20;;;9.10;;
43857;SDS011;29507;51.284;5.758;2023-08-24T04:48:22;17.48;;;9.07;;
43857;SDS011;29507;51.284;5.758;2023-08-24T04:50:48;16.70;;;9.80;;
43857;SDS011;29507;51.284;5.758;2023-08-24T04:53:17;14.75;;;8.55;;
43857;SDS011;29507;51.284;5.758;2023-08-24T04:55:44;15.40;;;9.30;;
43857;SDS011;29507;51.284;5.758;2023-08-24T04:58:11;17.27;;;8.43;;
43857;SDS011;29507;51.284;5.758;2023-08-24T05:00:38;17.13;;;9.13;;
43857;SDS011;29507;51.284;5.758;2023-08-24T05:03:04;14.80;;;8.52;;
43857;SDS011;29507;51.284;5.758;2023-08-24T05:05:31;17.75;;;9.02;;
43857;SDS011;29507;51.284;5.758;2023-08-24T05:07:58;16.73;;;8.88;;
43857;SDS011;29507;51.284;5.758;2023-08-24T05:10:25;18.08;;;8.48;;
43857;SDS011;29507;51.284;5.758;2023-08-24T05:12:51;15.48;;;8.40;;
43857;SDS011;29507;51.284;5.758;2023-08-24T05:15:16;15.57;;;8.52;;
43857;SDS011;29507;51.284;5.758;2023-08-24T05:17:42;14.63;;;8.27;;
43857;SDS011;29507;51.284;5.758;2023-08-24T05:20:08;22.00;;;9.65;;
43857;SDS011;29507;51.284;5.758;2023-08-24T05:22:35;16.45;;;8.38;;
43857;SDS011;29507;51.284;5.758;2023-08-24T05:25:01;19.52;;;8.80;;
43857;SDS011;29507;51.284;5.758;2023-08-24T05:27:27;15.57;;;8.70;;
43857;SDS011;29507;51.284;5.758;2023-08-24T05:29:53;16.00;;;8.43;;
43857;SDS011;29507;51.284;5.758;2023-08-24T05:32:18;15.10;;;8.05;;
43857;SDS011;29507;51.284;5.758;2023-08-24T05:34:45;17.73;;;8.95;;
43857;SDS011;29507;51.284;5.758;2023-08-24T05:37:11;15.57;;;8.80;;
43857;SDS011;29507;51.284;5.758;2023-08-24T05:39:37;19.33;;;9.45;;
43857;SDS011;29507;51.284;5.758;2023-08-24T05:42:03;15.75;;;9.15;;
43857;SDS011;29507;51.284;5.758;2023-08-24T05:44:29;14.98;;;8.20;;
43857;SDS011;29507;51.284;5.758;2023-08-24T05:46:55;17.45;;;9.55;;
43857;SDS011;29507;51.284;5.758;2023-08-24T05:49:21;19.35;;;9.57;;
43857;SDS011;29507;51.284;5.758;2023-08-24T05:51:46;17.13;;;10.15;;
43857;SDS011;29507;51.284;5.758;2023-08-24T05:54:15;21.40;;;9.48;;
43857;SDS011;29507;51.284;5.758;2023-08-24T05:56:43;15.90;;;9.90;;
43857;SDS011;29507;51.284;5.758;2023-08-24T05:59:09;15.82;;;8.88;;
43857;SDS011;29507;51.284;5.758;2023-08-24T06:01:35;16.80;;;9.32;;
43857;SDS011;29507;51.284;5.758;2023-08-24T06:04:04;17.95;;;9.43;;
43857;SDS011;29507;51.284;5.758;2023-08-24T06:06:30;17.40;;;9.23;;
43857;SDS011;29507;51.284;5.758;2023-08-24T06:08:56;21.38;;;8.68;;
43857;SDS011;29507;51.284;5.758;2023-08-24T06:11:22;17.23;;;9.25;;
43857;SDS011;29507;51.284;5.758;2023-08-24T06:13:48;21.50;;;10.20;;
43857;SDS011;29507;51.284;5.758;2023-08-24T06:16:14;20.40;;;9.63;;
43857;SDS011;29507;51.284;5.758;2023-08-24T06:18:39;21.10;;;10.45;;
43857;SDS011;29507;51.284;5.758;2023-08-24T06:21:05;16.13;;;9.80;;
43857;SDS011;29507;51.284;5.758;2023-08-24T06:23:31;17.17;;;9.57;;
43857;SDS011;29507;51.284;5.758;2023-08-24T06:25:56;16.88;;;10.18;;
43857;SDS011;29507;51.284;5.758;2023-08-24T06:28:22;18.52;;;9.77;;
43857;SDS011;29507;51.284;5.758;2023-08-24T06:30:47;13.90;;;8.77;;
43857;SDS011;29507;51.284;5.758;2023-08-24T06:33:13;14.15;;;7.60;;
43857;SDS011;29507;51.284;5.758;2023-08-24T06:35:41;11.10;;;7.22;;
43857;SDS011;29507;51.284;5.758;2023-08-24T06:38:07;14.02;;;7.95;;
43857;SDS011;29507;51.284;5.758;2023-08-24T06:40:33;14.27;;;8.23;;
43857;SDS011;29507;51.284;5.758;2023-08-24T06:42:58;20.75;;;7.93;;
43857;SDS011;29507;51.284;5.758;2023-08-24T06:45:24;17.02;;;7.78;;
43857;SDS011;29507;51.284;5.758;2023-08-24T06:47:49;11.50;;;7.65;;
43857;SDS011;29507;51.284;5.758;2023-08-24T06:50:16;15.48;;;8.27;;
43857;SDS011;29507;51.284;5.758;2023-08-24T06:52:44;12.38;;;7.45;;
43857;SDS011;29507;51.284;5.758;2023-08-24T06:55:09;14.75;;;7.90;;
43857;SDS011;29507;51.284;5.758;2023-08-24T06:57:38;11.27;;;6.45;;
43857;SDS011;29507;51.284;5.758;2023-08-24T07:00:04;12.98;;;5.90;;
43857;SDS011;29507;51.284;5.758;2023-08-24T07:02:32;9.93;;;6.00;;
43857;SDS011;29507;51.284;5.758;2023-08-24T07:04:58;15.18;;;6.30;;
43857;SDS011;29507;51.284;5.758;2023-08-24T07:07:25;10.75;;;5.30;;
43857;SDS011;29507;51.284;5.758;2023-08-24T07:09:51;11.27;;;6.10;;
43857;SDS011;29507;51.284;5.758;2023-08-24T07:12:17;17.65;;;5.75;;
43857;SDS011;29507;51.284;5.758;2023-08-24T07:14:42;12.43;;;5.68;;
43857;SDS011;29507;51.284;5.758;2023-08-24T07:17:08;14.05;;;6.93;;
43857;SDS011;29507;51.284;5.758;2023-08-24T07:19:35;12.60;;;6.00;;
43857;SDS011;29507;51.284;5.758;2023-08-24T07:22:00;10.80;;;5.88;;
43857;SDS011;29507;51.284;5.758;2023-08-24T07:24:26;10.02;;;5.03;;
43857;SDS011;29507;51.284;5.758;2023-08-24T07:26:53;8.13;;;4.90;;
43857;SDS011;29507;51.284;5.758;2023-08-24T07:29:20;9.40;;;5.28;;
43857;SDS011;29507;51.284;5.758;2023-08-24T07:31:46;12.00;;;6.07;;
43857;SDS011;29507;51.284;5.758;2023-08-24T07:34:12;7.15;;;4.70;;
43857;SDS011;29507;51.284;5.758;2023-08-24T07:36:39;14.02;;;5.60;;
43857;SDS011;29507;51.284;5.758;2023-08-24T07:39:04;10.88;;;4.40;;
43857;SDS011;29507;51.284;5.758;2023-08-24T07:41:30;8.18;;;4.00;;
43857;SDS011;29507;51.284;5.758;2023-08-24T07:43:55;11.77;;;4.70;;
43857;SDS011;29507;51.284;5.758;2023-08-24T07:46:21;7.38;;;4.38;;
43857;SDS011;29507;51.284;5.758;2023-08-24T07:48:47;10.38;;;5.00;;
43857;SDS011;29507;51.284;5.758;2023-08-24T07:51:12;10.57;;;4.95;;
43857;SDS011;29507;51.284;5.758;2023-08-24T07:53:38;11.38;;;4.70;;
43857;SDS011;29507;51.284;5.758;2023-08-24T07:56:04;7.95;;;4.03;;
43857;SDS011;29507;51.284;5.758;2023-08-24T07:58:30;9.35;;;4.03;;
43857;SDS011;29507;51.284;5.758;2023-08-24T08:00:57;6.95;;;4.07;;
43857;SDS011;29507;51.284;5.758;2023-08-24T08:03:23;10.15;;;4.50;;
43857;SDS011;29507;51.284;5.758;2023-08-24T08:05:49;8.65;;;4.18;;
43857;SDS011;29507;51.284;5.758;2023-08-24T08:08:15;9.95;;;4.00;;
43857;SDS011;29507;51.284;5.758;2023-08-24T08:10:40;10.13;;;4.30;;
43857;SDS011;29507;51.284;5.758;2023-08-24T08:13:07;11.45;;;3.58;;
43857;SDS011;29507;51.284;5.758;2023-08-24T08:15:36;10.63;;;3.90;;
43857;SDS011;29507;51.284;5.758;2023-08-24T08:18:03;5.85;;;3.30;;
43857;SDS011;29507;51.284;5.758;2023-08-24T08:20:29;11.02;;;3.65;;
43857;SDS011;29507;51.284;5.758;2023-08-24T08:22:56;6.50;;;3.50;;
43857;SDS011;29507;51.284;5.758;2023-08-24T08:25:22;7.90;;;3.20;;
43857;SDS011;29507;51.284;5.758;2023-08-24T08:27:48;11.05;;;3.00;;
43857;SDS011;29507;51.284;5.758;2023-08-24T08:30:14;5.93;;;3.10;;
43857;SDS011;29507;51.284;5.758;2023-08-24T08:32:45;8.70;;;2.72;;
43857;SDS011;29507;51.284;5.758;2023-08-24T08:35:10;9.20;;;2.75;;
43857;SDS011;29507;51.284;5.758;2023-08-24T08:37:36;7.60;;;2.90;;
43857;SDS011;29507;51.284;5.758;2023-08-24T08:40:03;5.40;;;2.65;;
43857;SDS011;29507;51.284;5.758;2023-08-24T08:42:31;9.48;;;2.78;;
43857;SDS011;29507;51.284;5.758;2023-08-24T08:44:59;10.10;;;2.50;;
43857;SDS011;29507;51.284;5.758;2023-08-24T08:49:53;9.45;;;3.35;;
43857;SDS011;29507;51.284;5.758;2023-08-24T08:52:21;6.53;;;2.47;;
43857;SDS011;29507;51.284;5.758;2023-08-24T08:54:47;6.20;;;2.60;;
43857;SDS011;29507;51.284;5.758;2023-08-24T08:57:12;7.72;;;2.72;;
43857;SDS011;29507;51.284;5.758;2023-08-24T08:59:42;5.22;;;2.80;;
43857;SDS011;29507;51.284;5.758;2023-08-24T09:02:08;5.78;;;2.30;;
43857;SDS011;29507;51.284;5.758;2023-08-24T09:04:40;7.13;;;2.60;;
43857;SDS011;29507;51.284;5.758;2023-08-24T09:07:07;7.00;;;2.42;;
43857;SDS011;29507;51.284;5.758;2023-08-24T09:12:03;8.85;;;2.60;;
43857;SDS011;29507;51.284;5.758;2023-08-24T09:14:31;6.50;;;2.65;;
43857;SDS011;29507;51.284;5.758;2023-08-24T09:16:57;7.53;;;2.67;;
43857;SDS011;29507;51.284;5.758;2023-08-24T09:19:29;5.68;;;2.45;;
43857;SDS011;29507;51.284;5.758;2023-08-24T09:21:59;14.70;;;2.90;;
43857;SDS011;29507;51.284;5.758;2023-08-24T09:24:32;7.80;;;2.47;;
43857;SDS011;29507;51.284;5.758;2023-08-24T09:26:59;7.97;;;2.75;;
43857;SDS011;29507;51.284;5.758;2023-08-24T09:29:38;6.90;;;2.60;;
43857;SDS011;29507;51.284;5.758;2023-08-24T09:32:05;6.35;;;2.40;;
43857;SDS011;29507;51.284;5.758;2023-08-24T09:36:58;4.75;;;2.35;;
43857;SDS011;29507;51.284;5.758;2023-08-24T09:39:24;5.78;;;2.42;;
43857;SDS011;29507;51.284;5.758;2023-08-24T09:41:50;6.45;;;1.98;;
43857;SDS011;29507;51.284;5.758;2023-08-24T09:44:16;6.53;;;2.60;;
43857;SDS011;29507;51.284;5.758;2023-08-24T09:46:43;5.47;;;2.80;;
43857;SDS011;29507;51.284;5.758;2023-08-24T09:51:37;9.55;;;2.60;;
43857;SDS011;29507;51.284;5.758;2023-08-24T09:54:06;6.60;;;2.28;;
43857;SDS011;29507;51.284;5.758;2023-08-24T09:56:37;6.60;;;2.60;;
43857;SDS011;29507;51.284;5.758;2023-08-24T09:59:16;4.88;;;2.55;;
43857;SDS011;29507;51.284;5.758;2023-08-24T10:01:49;6.88;;;2.30;;
43857;SDS011;29507;51.284;5.758;2023-08-24T10:04:23;5.57;;;2.30;;
43857;SDS011;29507;51.284;5.758;2023-08-24T10:06:51;6.45;;;2.60;;
43857;SDS011;29507;51.284;5.758;2023-08-24T10:09:31;5.15;;;2.30;;
43857;SDS011;29507;51.284;5.758;2023-08-24T10:12:03;5.20;;;2.22;;
43857;SDS011;29507;51.284;5.758;2023-08-24T10:14:33;4.10;;;2.10;;
43857;SDS011;29507;51.284;5.758;2023-08-24T10:17:16;5.00;;;1.90;;
43857;SDS011;29507;51.284;5.758;2023-08-24T10:19:43;4.03;;;2.08;;
43857;SDS011;29507;51.284;5.758;2023-08-24T10:22:09;5.05;;;1.80;;
43857;SDS011;29507;51.284;5.758;2023-08-24T10:24:35;5.45;;;2.38;;
43857;SDS011;29507;51.284;5.758;2023-08-24T10:27:02;4.97;;;1.98;;
43857;SDS011;29507;51.284;5.758;2023-08-24T10:29:29;7.30;;;2.40;;
43857;SDS011;29507;51.284;5.758;2023-08-24T10:31:54;5.25;;;2.05;;
43857;SDS011;29507;51.284;5.758;2023-08-24T10:34:21;5.05;;;2.08;;
43857;SDS011;29507;51.284;5.758;2023-08-24T10:36:48;9.07;;;3.00;;
43857;SDS011;29507;51.284;5.758;2023-08-24T10:39:14;7.28;;;2.00;;
43857;SDS011;29507;51.284;5.758;2023-08-24T10:41:50;6.97;;;2.42;;
43857;SDS011;29507;51.284;5.758;2023-08-24T10:44:36;4.63;;;2.30;;
43857;SDS011;29507;51.284;5.758;2023-08-24T10:49:56;4.90;;;2.53;;
43857;SDS011;29507;51.284;5.758;2023-08-24T10:52:32;6.75;;;2.47;;
43857;SDS011;29507;51.284;5.758;2023-08-24T10:55:04;5.65;;;3.30;;
43857;SDS011;29507;51.284;5.758;2023-08-24T10:57:47;9.23;;;2.80;;
43857;SDS011;29507;51.284;5.758;2023-08-24T11:00:25;6.90;;;3.33;;
43857;SDS011;29507;51.284;5.758;2023-08-24T11:02:52;5.55;;;2.97;;
43857;SDS011;29507;51.284;5.758;2023-08-24T11:05:20;7.60;;;2.95;;
43857;SDS011;29507;51.284;5.758;2023-08-24T11:07:50;5.93;;;2.97;;
43857;SDS011;29507;51.284;5.758;2023-08-24T11:10:21;5.47;;;2.92;;
43857;SDS011;29507;51.284;5.758;2023-08-24T11:15:33;8.40;;;3.78;;
43857;SDS011;29507;51.284;5.758;2023-08-24T11:18:22;9.70;;;3.85;;
43857;SDS011;29507;51.284;5.758;2023-08-24T11:20:54;8.57;;;3.25;;
43857;SDS011;29507;51.284;5.758;2023-08-24T11:23:27;5.22;;;3.05;;
43857;SDS011;29507;51.284;5.758;2023-08-24T11:25:54;6.95;;;2.55;;
43857;SDS011;29507;51.284;5.758;2023-08-24T11:28:22;6.97;;;2.85;;
43857;SDS011;29507;51.284;5.758;2023-08-24T11:30:52;5.47;;;2.75;;
43857;SDS011;29507;51.284;5.758;2023-08-24T11:33:36;15.23;;;2.65;;
43857;SDS011;29507;51.284;5.758;2023-08-24T11:36:03;5.78;;;2.67;;
43857;SDS011;29507;51.284;5.758;2023-08-24T11:38:39;5.80;;;2.20;;
43857;SDS011;29507;51.284;5.758;2023-08-24T11:41:12;8.00;;;2.47;;
43857;SDS011;29507;51.284;5.758;2023-08-24T11:43:39;5.88;;;2.75;;
43857;SDS011;29507;51.284;5.758;2023-08-24T11:46:04;6.25;;;2.88;;
43857;SDS011;29507;51.284;5.758;2023-08-24T11:48:30;9.57;;;2.95;;
43857;SDS011;29507;51.284;5.758;2023-08-24T11:50:59;6.22;;;2.80;;
43857;SDS011;29507;51.284;5.758;2023-08-24T11:53:25;5.38;;;2.88;;
43857;SDS011;29507;51.284;5.758;2023-08-24T11:55:54;8.75;;;3.17;;
43857;SDS011;29507;51.284;5.758;2023-08-24T11:58:20;7.00;;;3.08;;
43857;SDS011;29507;51.284;5.758;2023-08-24T12:00:46;5.68;;;2.90;;
43857;SDS011;29507;51.284;5.758;2023-08-24T12:03:12;7.55;;;3.42;;
43857;SDS011;29507;51.284;5.758;2023-08-24T12:05:38;9.48;;;3.00;;
43857;SDS011;29507;51.284;5.758;2023-08-24T12:08:04;8.82;;;3.22;;
43857;SDS011;29507;51.284;5.758;2023-08-24T12:10:30;10.95;;;3.20;;
43857;SDS011;29507;51.284;5.758;2023-08-24T12:13:14;6.80;;;3.60;;
43857;SDS011;29507;51.284;5.758;2023-08-24T12:15:40;7.30;;;4.03;;
43857;SDS011;29507;51.284;5.758;2023-08-24T12:18:06;10.95;;;3.83;;
43857;SDS011;29507;51.284;5.758;2023-08-24T12:20:36;8.88;;;3.00;;
43857;SDS011;29507;51.284;5.758;2023-08-24T12:23:02;5.28;;;2.92;;
43857;SDS011;29507;51.284;5.758;2023-08-24T12:25:27;7.85;;;3.00;;
43857;SDS011;29507;51.284;5.758;2023-08-24T12:28:12;7.97;;;3.10;;
43857;SDS011;29507;51.284;5.758;2023-08-24T12:30:43;10.40;;;3.40;;
43857;SDS011;29507;51.284;5.758;2023-08-24T12:33:09;7.97;;;3.25;;
43857;SDS011;29507;51.284;5.758;2023-08-24T12:35:50;6.65;;;2.97;;
43857;SDS011;29507;51.284;5.758;2023-08-24T12:38:16;5.32;;;2.90;;
43857;SDS011;29507;51.284;5.758;2023-08-24T12:40:42;5.32;;;3.00;;
43857;SDS011;29507;51.284;5.758;2023-08-24T12:43:07;4.88;;;2.53;;
43857;SDS011;29507;51.284;5.758;2023-08-24T12:45:33;5.43;;;2.45;;
43857;SDS011;29507;51.284;5.758;2023-08-24T12:47:59;6.00;;;2.33;;
43857;SDS011;29507;51.284;5.758;2023-08-24T12:50:24;6.07;;;3.13;;
43857;SDS011;29507;51.284;5.758;2023-08-24T12:52:50;6.50;;;2.58;;
43857;SDS011;29507;51.284;5.758;2023-08-24T12:55:20;8.70;;;2.40;;
43857;SDS011;29507;51.284;5.758;2023-08-24T12:57:46;8.07;;;3.13;;
43857;SDS011;29507;51.284;5.758;2023-08-24T13:00:12;8.60;;;2.55;;
43857;SDS011;29507;51.284;5.758;2023-08-24T13:02:39;5.63;;;2.20;;
43857;SDS011;29507;51.284;5.758;2023-08-24T13:05:04;6.22;;;2.38;;
43857;SDS011;29507;51.284;5.758;2023-08-24T13:07:31;5.60;;;2.38;;
43857;SDS011;29507;51.284;5.758;2023-08-24T13:09:56;7.03;;;2.42;;
43857;SDS011;29507;51.284;5.758;2023-08-24T13:12:22;8.15;;;2.47;;
43857;SDS011;29507;51.284;5.758;2023-08-24T13:14:49;8.48;;;2.35;;
43857;SDS011;29507;51.284;5.758;2023-08-24T13:17:15;8.45;;;3.63;;
43857;SDS011;29507;51.284;5.758;2023-08-24T13:19:40;7.03;;;2.72;;
43857;SDS011;29507;51.284;5.758;2023-08-24T13:22:06;12.30;;;3.17;;
43857;SDS011;29507;51.284;5.758;2023-08-24T13:24:33;7.93;;;3.33;;
43857;SDS011;29507;51.284;5.758;2023-08-24T13:26:59;10.18;;;4.45;;
43857;SDS011;29507;51.284;5.758;2023-08-24T13:29:24;8.38;;;3.83;;
43857;SDS011;29507;51.284;5.758;2023-08-24T13:31:51;11.70;;;4.15;;
43857;SDS011;29507;51.284;5.758;2023-08-24T13:34:17;8.00;;;3.80;;
43857;SDS011;29507;51.284;5.758;2023-08-24T13:36:43;7.55;;;3.70;;
43857;SDS011;29507;51.284;5.758;2023-08-24T13:39:09;8.55;;;3.97;;
43857;SDS011;29507;51.284;5.758;2023-08-24T13:41:36;7.35;;;4.03;;
43857;SDS011;29507;51.284;5.758;2023-08-24T13:44:02;9.05;;;4.40;;
43857;SDS011;29507;51.284;5.758;2023-08-24T13:46:27;7.65;;;3.58;;
43857;SDS011;29507;51.284;5.758;2023-08-24T13:48:53;7.00;;;3.72;;
43857;SDS011;29507;51.284;5.758;2023-08-24T13:51:19;8.32;;;3.95;;
43857;SDS011;29507;51.284;5.758;2023-08-24T13:53:44;9.20;;;4.22;;
43857;SDS011;29507;51.284;5.758;2023-08-24T13:56:10;9.57;;;4.00;;
43857;SDS011;29507;51.284;5.758;2023-08-24T13:58:35;5.38;;;2.97;;
43857;SDS011;29507;51.284;5.758;2023-08-24T14:01:01;6.32;;;3.58;;
43857;SDS011;29507;51.284;5.758;2023-08-24T14:03:28;5.10;;;2.90;;
43857;SDS011;29507;51.284;5.758;2023-08-24T14:05:54;6.68;;;2.58;;
43857;SDS011;29507;51.284;5.758;2023-08-24T14:08:21;5.90;;;2.58;;
43857;SDS011;29507;51.284;5.758;2023-08-24T14:10:46;7.47;;;3.05;;
43857;SDS011;29507;51.284;5.758;2023-08-24T14:13:14;11.73;;;3.10;;
43857;SDS011;29507;51.284;5.758;2023-08-24T14:15:40;6.97;;;3.50;;
43857;SDS011;29507;51.284;5.758;2023-08-24T14:18:06;10.07;;;3.45;;
43857;SDS011;29507;51.284;5.758;2023-08-24T14:20:31;7.93;;;2.60;;
43857;SDS011;29507;51.284;5.758;2023-08-24T14:22:58;5.20;;;2.97;;
43857;SDS011;29507;51.284;5.758;2023-08-24T14:25:24;8.27;;;3.58;;
43857;SDS011;29507;51.284;5.758;2023-08-24T14:27:50;8.57;;;3.30;;
43857;SDS011;29507;51.284;5.758;2023-08-24T14:30:15;8.23;;;3.25;;
43857;SDS011;29507;51.284;5.758;2023-08-24T14:32:41;6.28;;;3.17;;
43857;SDS011;29507;51.284;5.758;2023-08-24T14:35:07;7.10;;;3.25;;
43857;SDS011;29507;51.284;5.758;2023-08-24T14:37:33;6.45;;;3.17;;
43857;SDS011;29507;51.284;5.758;2023-08-24T14:39:59;6.57;;;3.20;;
43857;SDS011;29507;51.284;5.758;2023-08-24T14:42:24;8.00;;;3.30;;
43857;SDS011;29507;51.284;5.758;2023-08-24T14:44:50;6.30;;;3.05;;
43857;SDS011;29507;51.284;5.758;2023-08-24T14:47:16;7.03;;;3.22;;
43857;SDS011;29507;51.284;5.758;2023-08-24T14:49:41;5.72;;;2.97;;
43857;SDS011;29507;51.284;5.758;2023-08-24T14:52:10;4.95;;;2.42;;
43857;SDS011;29507;51.284;5.758;2023-08-24T14:54:35;5.57;;;2.28;;
43857;SDS011;29507;51.284;5.758;2023-08-24T14:57:01;3.15;;;1.80;;
43857;SDS011;29507;51.284;5.758;2023-08-24T14:59:28;3.45;;;1.70;;
43857;SDS011;29507;51.284;5.758;2023-08-24T15:01:54;5.30;;;2.00;;
43857;SDS011;29507;51.284;5.758;2023-08-24T15:04:25;4.95;;;2.10;;
43857;SDS011;29507;51.284;5.758;2023-08-24T15:06:51;3.83;;;1.90;;